sensor_id;sensor_type;location;lat;lon;timestamp;temperature;humidity
10536;DHT22;5316;49.538;8.352;2023-07-30T00:06:27;20.20;99.90
10536;DHT22;5316;49.538;8.352;2023-07-30T00:09:37;20.20;99.90
10536;DHT22;5316;49.538;8.352;2023-07-30T00:12:40;20.10;99.90
10536;DHT22;5316;49.538;8.352;2023-07-30T00:15:40;20.00;99.90
10536;DHT22;5316;49.538;8.352;2023-07-30T00:18:37;20.00;99.90
10536;DHT22;5316;49.538;8.352;2023-07-30T00:21:50;20.00;99.90
10536;DHT22;5316;49.538;8.352;2023-07-30T00:31:35;19.90;99.90
10536;DHT22;5316;49.538;8.352;2023-07-30T00:34:47;19.90;99.90
10536;DHT22;5316;49.538;8.352;2023-07-30T00:37:29;19.80;99.90
10536;DHT22;5316;49.538;8.352;2023-07-30T00:40:26;19.80;99.90
10536;DHT22;5316;49.538;8.352;2023-07-30T00:43:13;19.80;99.90
10536;DHT22;5316;49.538;8.352;2023-07-30T00:46:04;19.90;99.90
10536;DHT22;5316;49.538;8.352;2023-07-30T00:48:56;20.00;99.90
10536;DHT22;5316;49.538;8.352;2023-07-30T00:51:44;19.90;99.90
10536;DHT22;5316;49.538;8.352;2023-07-30T01:25:36;20.00;99.90
10536;DHT22;5316;49.538;8.352;2023-07-30T01:28:24;20.00;99.90
10536;DHT22;5316;49.538;8.352;2023-07-30T01:31:03;20.00;99.90
10536;DHT22;5316;49.538;8.352;2023-07-30T01:33:50;19.90;99.90
10536;DHT22;5316;49.538;8.352;2023-07-30T01:36:36;20.00;99.90
10536;DHT22;5316;49.538;8.352;2023-07-30T01:39:27;19.90;99.90
10536;DHT22;5316;49.538;8.352;2023-07-30T01:42:29;19.90;99.90
10536;DHT22;5316;49.538;8.352;2023-07-30T01:45:15;19.90;99.90
10536;DHT22;5316;49.538;8.352;2023-07-30T01:47:49;19.90;99.90
10536;DHT22;5316;49.538;8.352;2023-07-30T01:50:19;19.80;99.90
10536;DHT22;5316;49.538;8.352;2023-07-30T01:53:01;19.80;99.90
10536;DHT22;5316;49.538;8.352;2023-07-30T01:55:33;19.80;99.90
10536;DHT22;5316;49.538;8.352;2023-07-30T01:58:07;19.70;99.90
10536;DHT22;5316;49.538;8.352;2023-07-30T02:00:45;19.70;99.90
10536;DHT22;5316;49.538;8.352;2023-07-30T02:03:27;19.80;99.90
10536;DHT22;5316;49.538;8.352;2023-07-30T02:05:57;19.80;99.90
10536;DHT22;5316;49.538;8.352;2023-07-30T02:08:29;19.80;99.90
10536;DHT22;5316;49.538;8.352;2023-07-30T02:11:01;19.80;99.90
10536;DHT22;5316;49.538;8.352;2023-07-30T02:13:38;19.80;99.90
10536;DHT22;5316;49.538;8.352;2023-07-30T02:16:14;19.80;99.90
10536;DHT22;5316;49.538;8.352;2023-07-30T02:18:49;19.70;99.90
10536;DHT22;5316;49.538;8.352;2023-07-30T02:21:26;19.70;99.90
10536;DHT22;5316;49.538;8.352;2023-07-30T02:24:02;19.70;99.90
10536;DHT22;5316;49.538;8.352;2023-07-30T02:26:38;19.70;99.90
10536;DHT22;5316;49.538;8.352;2023-07-30T02:29:11;19.70;99.90
10536;DHT22;5316;49.538;8.352;2023-07-30T02:31:44;19.70;99.90
10536;DHT22;5316;49.538;8.352;2023-07-30T02:34:13;19.70;99.90
10536;DHT22;5316;49.538;8.352;2023-07-30T02:36:41;19.70;99.90
10536;DHT22;5316;49.538;8.352;2023-07-30T02:39:10;19.70;99.90
10536;DHT22;5316;49.538;8.352;2023-07-30T02:41:38;19.70;99.90
10536;DHT22;5316;49.538;8.352;2023-07-30T02:44:06;19.70;99.90
10536;DHT22;5316;49.538;8.352;2023-07-30T02:46:40;19.70;99.90
10536;DHT22;5316;49.538;8.352;2023-07-30T02:49:10;19.60;99.90
10536;DHT22;5316;49.538;8.352;2023-07-30T02:51:41;19.60;99.90
10536;DHT22;5316;49.538;8.352;2023-07-30T02:54:17;19.60;99.90
10536;DHT22;5316;49.538;8.352;2023-07-30T02:56:47;19.60;99.90
10536;DHT22;5316;49.538;8.352;2023-07-30T02:59:14;19.60;99.90
10536;DHT22;5316;49.538;8.352;2023-07-30T03:02:00;19.50;99.90
10536;DHT22;5316;49.538;8.352;2023-07-30T03:04:31;19.50;99.90
10536;DHT22;5316;49.538;8.352;2023-07-30T03:07:11;19.50;99.90
10536;DHT22;5316;49.538;8.352;2023-07-30T03:09:45;19.50;99.90
10536;DHT22;5316;49.538;8.352;2023-07-30T03:12:19;19.50;99.90
10536;DHT22;5316;49.538;8.352;2023-07-30T03:14:55;19.50;99.90
10536;DHT22;5316;49.538;8.352;2023-07-30T03:17:35;19.50;99.90
10536;DHT22;5316;49.538;8.352;2023-07-30T03:20:16;19.40;99.90
10536;DHT22;5316;49.538;8.352;2023-07-30T03:22:51;19.40;99.90
10536;DHT22;5316;49.538;8.352;2023-07-30T03:25:33;19.40;99.90
10536;DHT22;5316;49.538;8.352;2023-07-30T03:28:20;19.40;99.90
10536;DHT22;5316;49.538;8.352;2023-07-30T03:30:58;19.40;99.90
10536;DHT22;5316;49.538;8.352;2023-07-30T03:33:45;19.40;99.90
10536;DHT22;5316;49.538;8.352;2023-07-30T03:36:35;19.40;99.90
10536;DHT22;5316;49.538;8.352;2023-07-30T03:39:24;19.30;99.90
10536;DHT22;5316;49.538;8.352;2023-07-30T04:05:38;19.50;99.90
10536;DHT22;5316;49.538;8.352;2023-07-30T04:08:13;19.50;99.90
10536;DHT22;5316;49.538;8.352;2023-07-30T04:10:44;19.40;99.90
10536;DHT22;5316;49.538;8.352;2023-07-30T04:13:15;19.40;99.90
10536;DHT22;5316;49.538;8.352;2023-07-30T04:39:08;19.40;99.90
10536;DHT22;5316;49.538;8.352;2023-07-30T04:42:35;19.40;99.90
10536;DHT22;5316;49.538;8.352;2023-07-30T04:45:28;19.50;99.90
10536;DHT22;5316;49.538;8.352;2023-07-30T04:48:43;19.50;99.90
10536;DHT22;5316;49.538;8.352;2023-07-30T04:51:40;19.50;99.90
10536;DHT22;5316;49.538;8.352;2023-07-30T05:11:33;19.70;99.90
10536;DHT22;5316;49.538;8.352;2023-07-30T08:20:59;22.40;99.90
10536;DHT22;5316;49.538;8.352;2023-07-30T08:23:27;22.30;99.90
10536;DHT22;5316;49.538;8.352;2023-07-30T08:25:53;22.30;99.90
10536;DHT22;5316;49.538;8.352;2023-07-30T08:28:21;22.30;99.90
10536;DHT22;5316;49.538;8.352;2023-07-30T08:30:48;22.50;99.90
10536;DHT22;5316;49.538;8.352;2023-07-30T08:33:17;22.50;99.90
10536;DHT22;5316;49.538;8.352;2023-07-30T08:35:44;22.60;99.90
10536;DHT22;5316;49.538;8.352;2023-07-30T08:38:12;22.50;99.90
10536;DHT22;5316;49.538;8.352;2023-07-30T08:40:39;22.50;99.90
10536;DHT22;5316;49.538;8.352;2023-07-30T08:43:06;22.60;99.90
10536;DHT22;5316;49.538;8.352;2023-07-30T08:45:33;22.60;99.90
10536;DHT22;5316;49.538;8.352;2023-07-30T08:48:00;22.70;99.90
10536;DHT22;5316;49.538;8.352;2023-07-30T08:50:28;22.90;99.90
10536;DHT22;5316;49.538;8.352;2023-07-30T08:52:57;22.70;99.90
10536;DHT22;5316;49.538;8.352;2023-07-30T08:55:28;22.70;99.90
10536;DHT22;5316;49.538;8.352;2023-07-30T08:57:55;22.80;99.90
10536;DHT22;5316;49.538;8.352;2023-07-30T09:00:25;22.90;1.00
10536;DHT22;5316;49.538;8.352;2023-07-30T09:02:55;23.00;1.00
10536;DHT22;5316;49.538;8.352;2023-07-30T09:05:23;23.10;1.00
10536;DHT22;5316;49.538;8.352;2023-07-30T09:07:50;23.30;1.00
10536;DHT22;5316;49.538;8.352;2023-07-30T09:10:17;23.20;1.00
10536;DHT22;5316;49.538;8.352;2023-07-30T09:12:52;23.20;1.00
10536;DHT22;5316;49.538;8.352;2023-07-30T09:15:20;23.20;99.90
10536;DHT22;5316;49.538;8.352;2023-07-30T09:17:55;23.00;99.90
10536;DHT22;5316;49.538;8.352;2023-07-30T09:20:23;22.80;99.90
10536;DHT22;5316;49.538;8.352;2023-07-30T09:22:49;22.80;1.00
10536;DHT22;5316;49.538;8.352;2023-07-30T09:25:18;22.60;1.00
10536;DHT22;5316;49.538;8.352;2023-07-30T09:27:51;22.40;6.40
10536;DHT22;5316;49.538;8.352;2023-07-30T09:30:22;22.30;1.00
10536;DHT22;5316;49.538;8.352;2023-07-30T09:32:52;22.20;1.00
10536;DHT22;5316;49.538;8.352;2023-07-30T09:35:20;22.20;1.00
10536;DHT22;5316;49.538;8.352;2023-07-30T09:37:49;22.10;1.00
10536;DHT22;5316;49.538;8.352;2023-07-30T09:40:18;22.20;1.00
10536;DHT22;5316;49.538;8.352;2023-07-30T09:42:53;22.20;1.00
10536;DHT22;5316;49.538;8.352;2023-07-30T09:45:23;22.30;99.90
10536;DHT22;5316;49.538;8.352;2023-07-30T09:47:51;22.30;99.90
10536;DHT22;5316;49.538;8.352;2023-07-30T09:50:19;22.30;1.00
10536;DHT22;5316;49.538;8.352;2023-07-30T09:52:47;22.40;1.00
10536;DHT22;5316;49.538;8.352;2023-07-30T09:55:15;22.40;1.00
10536;DHT22;5316;49.538;8.352;2023-07-30T09:57:44;22.50;1.00
10536;DHT22;5316;49.538;8.352;2023-07-30T10:00:13;22.50;1.00
10536;DHT22;5316;49.538;8.352;2023-07-30T10:02:44;22.40;1.00
10536;DHT22;5316;49.538;8.352;2023-07-30T10:05:15;22.50;1.00
10536;DHT22;5316;49.538;8.352;2023-07-30T10:07:48;22.40;1.00
10536;DHT22;5316;49.538;8.352;2023-07-30T10:10:16;22.50;1.00
10536;DHT22;5316;49.538;8.352;2023-07-30T10:12:48;22.60;1.00
10536;DHT22;5316;49.538;8.352;2023-07-30T10:15:20;22.70;1.00
10536;DHT22;5316;49.538;8.352;2023-07-30T10:17:49;22.70;99.90
10536;DHT22;5316;49.538;8.352;2023-07-30T10:20:24;22.80;99.90
10536;DHT22;5316;49.538;8.352;2023-07-30T10:22:53;22.90;99.90
10536;DHT22;5316;49.538;8.352;2023-07-30T10:25:21;22.90;1.00
10536;DHT22;5316;49.538;8.352;2023-07-30T10:27:51;22.90;1.00
10536;DHT22;5316;49.538;8.352;2023-07-30T10:30:21;23.00;1.00
10536;DHT22;5316;49.538;8.352;2023-07-30T10:33:04;23.00;99.90
10536;DHT22;5316;49.538;8.352;2023-07-30T10:35:39;22.90;99.90
10536;DHT22;5316;49.538;8.352;2023-07-30T19:51:26;20.90;50.70
10536;DHT22;5316;49.538;8.352;2023-07-30T19:53:53;20.90;99.90
10536;DHT22;5316;49.538;8.352;2023-07-30T19:56:24;20.80;99.90
10536;DHT22;5316;49.538;8.352;2023-07-30T19:58:51;20.80;1.00
10536;DHT22;5316;49.538;8.352;2023-07-30T20:01:18;20.80;1.00
10536;DHT22;5316;49.538;8.352;2023-07-30T20:03:45;20.70;1.00
10536;DHT22;5316;49.538;8.352;2023-07-30T20:06:12;20.70;99.90
10536;DHT22;5316;49.538;8.352;2023-07-30T20:08:42;20.60;99.90
10536;DHT22;5316;49.538;8.352;2023-07-30T20:11:10;20.70;99.90
10536;DHT22;5316;49.538;8.352;2023-07-30T20:13:37;20.60;1.00
10536;DHT22;5316;49.538;8.352;2023-07-30T20:16:10;20.60;99.90
10536;DHT22;5316;49.538;8.352;2023-07-30T20:18:37;20.60;1.00
10536;DHT22;5316;49.538;8.352;2023-07-30T20:21:06;20.50;1.00
10536;DHT22;5316;49.538;8.352;2023-07-30T20:23:33;20.50;14.10
10536;DHT22;5316;49.538;8.352;2023-07-30T20:26:09;20.50;99.90
10536;DHT22;5316;49.538;8.352;2023-07-30T20:28:36;20.50;1.00
10536;DHT22;5316;49.538;8.352;2023-07-30T20:31:03;20.50;99.90
10536;DHT22;5316;49.538;8.352;2023-07-30T20:33:30;20.40;1.00
10536;DHT22;5316;49.538;8.352;2023-07-30T20:35:58;20.40;1.00
10536;DHT22;5316;49.538;8.352;2023-07-30T20:38:25;20.40;15.70
10536;DHT22;5316;49.538;8.352;2023-07-30T20:40:52;20.30;94.40
10536;DHT22;5316;49.538;8.352;2023-07-30T20:43:21;20.40;18.10
10536;DHT22;5316;49.538;8.352;2023-07-30T20:45:48;20.30;99.90
10536;DHT22;5316;49.538;8.352;2023-07-30T20:48:15;20.30;99.90
10536;DHT22;5316;49.538;8.352;2023-07-30T20:50:42;20.30;16.30
10536;DHT22;5316;49.538;8.352;2023-07-30T20:53:09;20.30;1.00
10536;DHT22;5316;49.538;8.352;2023-07-30T20:55:39;20.30;99.90
10536;DHT22;5316;49.538;8.352;2023-07-30T20:58:06;20.40;99.90
10536;DHT22;5316;49.538;8.352;2023-07-30T21:00:35;20.40;99.90
10536;DHT22;5316;49.538;8.352;2023-07-30T21:03:02;20.40;99.90
10536;DHT22;5316;49.538;8.352;2023-07-30T21:05:29;20.40;1.00
10536;DHT22;5316;49.538;8.352;2023-07-30T21:07:56;20.40;11.00
10536;DHT22;5316;49.538;8.352;2023-07-30T21:10:23;20.40;1.00
10536;DHT22;5316;49.538;8.352;2023-07-30T21:12:50;20.50;1.00
10536;DHT22;5316;49.538;8.352;2023-07-30T21:15:17;20.60;1.00
10536;DHT22;5316;49.538;8.352;2023-07-30T21:17:45;20.50;1.00
10536;DHT22;5316;49.538;8.352;2023-07-30T21:20:13;20.50;1.00
10536;DHT22;5316;49.538;8.352;2023-07-30T21:22:40;20.50;1.00
10536;DHT22;5316;49.538;8.352;2023-07-30T21:25:07;20.50;1.00
10536;DHT22;5316;49.538;8.352;2023-07-30T21:27:34;20.50;1.00
10536;DHT22;5316;49.538;8.352;2023-07-30T21:30:02;20.40;1.00
10536;DHT22;5316;49.538;8.352;2023-07-30T21:32:29;20.40;11.40
10536;DHT22;5316;49.538;8.352;2023-07-30T21:34:57;20.40;99.90
10536;DHT22;5316;49.538;8.352;2023-07-30T21:37:24;20.30;99.90
10536;DHT22;5316;49.538;8.352;2023-07-30T21:39:56;20.40;99.90
10536;DHT22;5316;49.538;8.352;2023-07-30T21:42:23;20.50;99.90
10536;DHT22;5316;49.538;8.352;2023-07-30T21:44:50;20.50;11.30
10536;DHT22;5316;49.538;8.352;2023-07-30T21:47:17;20.40;10.90
10536;DHT22;5316;49.538;8.352;2023-07-30T21:49:44;20.40;11.20
10536;DHT22;5316;49.538;8.352;2023-07-30T21:52:23;20.50;99.90
10536;DHT22;5316;49.538;8.352;2023-07-30T21:54:51;20.40;99.90
10536;DHT22;5316;49.538;8.352;2023-07-30T21:57:18;20.40;99.90
10536;DHT22;5316;49.538;8.352;2023-07-30T21:59:46;20.30;1.00
10536;DHT22;5316;49.538;8.352;2023-07-30T22:02:13;20.30;1.00
10536;DHT22;5316;49.538;8.352;2023-07-30T22:04:40;20.30;18.40
10536;DHT22;5316;49.538;8.352;2023-07-30T22:07:07;20.30;99.90
10536;DHT22;5316;49.538;8.352;2023-07-30T22:09:38;20.20;99.90
10536;DHT22;5316;49.538;8.352;2023-07-30T22:12:05;20.20;99.90
10536;DHT22;5316;49.538;8.352;2023-07-30T22:14:32;20.20;1.00
10536;DHT22;5316;49.538;8.352;2023-07-30T22:16:59;20.20;99.90
10536;DHT22;5316;49.538;8.352;2023-07-30T22:19:26;20.20;99.90
10536;DHT22;5316;49.538;8.352;2023-07-30T22:21:53;20.10;99.90
10536;DHT22;5316;49.538;8.352;2023-07-30T22:24:20;20.10;99.90
10536;DHT22;5316;49.538;8.352;2023-07-30T22:26:48;20.10;81.10
10536;DHT22;5316;49.538;8.352;2023-07-30T22:29:15;20.10;59.00
10536;DHT22;5316;49.538;8.352;2023-07-30T22:31:43;20.10;19.70
10536;DHT22;5316;49.538;8.352;2023-07-30T22:34:10;20.10;18.30
10536;DHT22;5316;49.538;8.352;2023-07-30T22:36:37;20.00;99.90
